createdAt,value
2022-08-07T03:35:53.038Z,19.72
2022-08-07T03:36:52.827Z,19.58
2022-08-07T03:37:53.232Z,19.47
2022-08-07T03:45:51.918Z,19.66
2022-08-07T03:47:13.733Z,19.63
2022-08-07T03:47:52.919Z,19.48
2022-08-07T03:52:01.159Z,19.84
2022-08-07T03:52:52.871Z,19.69
2022-08-07T03:54:33.133Z,19.66
2022-08-07T03:54:54.930Z,19.63
2022-08-07T03:56:03.774Z,19.70
2022-08-07T03:56:59.764Z,19.73
2022-08-07T03:58:34.251Z,19.66
2022-08-07T03:59:07.049Z,19.82
2022-08-07T04:00:02.906Z,19.89
2022-08-07T04:00:56.991Z,19.82
2022-08-07T04:01:51.830Z,19.82
2022-08-07T04:02:51.748Z,19.78
2022-08-07T04:03:55.083Z,19.85
2022-08-07T04:04:51.727Z,19.82
2022-08-07T04:05:51.715Z,19.81
2022-08-07T04:06:52.727Z,19.86
2022-08-07T04:07:51.699Z,19.97
2022-08-07T04:08:51.684Z,19.78
2022-08-07T04:09:51.678Z,19.79
2022-08-07T04:10:54.543Z,19.81
2022-08-07T04:12:26.430Z,19.65
2022-08-07T04:12:52.666Z,19.72
2022-08-07T04:14:10.548Z,19.68
2022-08-07T04:14:52.645Z,19.45
2022-08-07T04:15:51.614Z,19.58
2022-08-07T04:16:58.397Z,19.59
2022-08-07T04:18:56.215Z,19.65
2022-08-07T04:18:59.536Z,19.35
2022-08-07T04:19:54.464Z,19.48
2022-08-07T04:20:54.840Z,19.47
2022-08-07T04:22:05.340Z,19.41
2022-08-07T04:22:53.664Z,19.53
2022-08-07T04:24:07.716Z,19.51
2022-08-07T04:24:52.545Z,19.40
2022-08-07T04:25:51.515Z,19.26
2022-08-07T04:26:51.505Z,19.28
2022-08-07T04:27:59.282Z,19.29
2022-08-07T04:28:52.512Z,19.22
2022-08-07T04:30:01.164Z,19.21
2022-08-07T04:30:55.467Z,19.29
2022-08-07T04:32:02.944Z,19.14
2022-08-07T04:32:58.370Z,19.23
2022-08-07T04:33:55.104Z,19.17
2022-08-07T04:34:51.420Z,19.32
2022-08-07T04:35:51.474Z,19.28
2022-08-07T04:36:51.449Z,19.26
2022-08-07T04:38:03.193Z,19.30
2022-08-07T04:38:52.400Z,19.44
2022-08-07T04:39:51.411Z,19.29
2022-08-07T04:40:53.118Z,19.33
2022-08-07T04:41:51.352Z,19.33
2022-08-07T04:42:52.341Z,19.38
2022-08-07T04:44:10.027Z,19.45
2022-08-07T04:44:54.616Z,19.50
2022-08-07T04:46:01.358Z,19.55
2022-08-07T04:47:04.493Z,19.59
2022-08-07T04:47:57.907Z,19.79
2022-08-07T04:48:52.304Z,19.76
2022-08-07T04:49:57.709Z,19.81
2022-08-07T04:50:53.058Z,19.62
2022-08-07T04:51:51.251Z,19.73
2022-08-07T04:52:52.518Z,19.73
2022-08-07T04:54:05.239Z,19.78
2022-08-07T04:54:51.222Z,19.96
2022-08-07T04:58:10.445Z,20.00
2022-08-07T04:58:15.548Z,19.76
2022-08-07T04:58:16.149Z,19.94
2022-08-07T04:59:17.240Z,20.03
2022-08-07T05:00:09.839Z,19.88
2022-08-07T05:00:52.219Z,20.03
2022-08-07T05:01:51.327Z,20.07
2022-08-07T05:02:51.140Z,19.94
2022-08-07T05:04:06.452Z,20.11
2022-08-07T05:04:51.123Z,20.10
2022-08-07T05:05:53.344Z,20.09
2022-08-07T05:06:51.356Z,20.11
2022-08-07T05:07:51.719Z,20.01
2022-08-07T05:09:01.035Z,20.26
2022-08-07T05:09:51.071Z,20.14
2022-08-07T05:10:51.060Z,20.37
2022-08-07T05:11:57.007Z,20.22
2022-08-07T05:12:53.845Z,20.15
2022-08-07T05:14:53.337Z,20.17
2022-08-07T05:15:04.318Z,20.31
2022-08-07T05:15:52.028Z,20.24
2022-08-07T05:16:52.910Z,20.25
2022-08-07T05:17:54.828Z,20.29
2022-08-07T05:18:50.981Z,20.33
2022-08-07T05:19:50.965Z,20.24
2022-08-07T05:20:50.963Z,20.44
2022-08-07T05:22:00.564Z,20.40
2022-08-07T05:22:51.958Z,20.41
2022-08-07T05:23:50.926Z,20.52
2022-08-07T05:24:51.169Z,20.26
2022-08-07T05:26:10.662Z,20.36
2022-08-07T05:26:51.916Z,20.19
2022-08-07T05:28:02.452Z,20.24
2022-08-07T05:28:51.892Z,20.21
2022-08-07T05:29:52.108Z,20.17
2022-08-07T05:30:50.854Z,20.22
2022-08-07T05:31:52.805Z,20.28
2022-08-07T05:32:50.835Z,20.33
2022-08-07T05:34:01.365Z,20.31
2022-08-07T05:34:51.835Z,20.36
2022-08-07T05:35:50.801Z,20.43
2022-08-07T05:36:52.952Z,20.41
2022-08-07T05:38:08.943Z,20.51
2022-08-07T05:38:58.046Z,20.46
2022-08-07T05:40:16.607Z,20.54
2022-08-07T05:40:51.767Z,20.64
2022-08-07T05:42:02.212Z,20.84
2022-08-07T05:42:55.638Z,20.79
2022-08-07T05:44:12.050Z,21.05
2022-08-07T05:45:04.303Z,21.11
2022-08-07T05:45:51.724Z,21.11
2022-08-07T05:46:51.233Z,21.17
2022-08-07T05:48:01.830Z,21.40
2022-08-07T05:48:58.363Z,21.33
2022-08-07T05:49:51.691Z,21.27
2022-08-07T05:50:50.801Z,21.04
2022-08-07T05:51:50.648Z,21.09
2022-08-07T05:52:50.637Z,21.05
2022-08-07T05:54:09.215Z,20.84
2022-08-07T05:54:55.469Z,20.92
2022-08-07T05:56:01.998Z,20.95
2022-08-07T05:56:51.641Z,20.99
2022-08-07T05:57:50.587Z,21.13
2022-08-07T05:58:52.712Z,21.18
2022-08-07T05:59:57.132Z,21.14
2022-08-07T06:00:51.577Z,21.09
2022-08-07T06:01:50.588Z,21.17
2022-08-07T06:02:50.538Z,21.17
2022-08-07T06:03:57.140Z,21.18
2022-08-07T06:04:51.536Z,21.35
2022-08-07T06:05:56.684Z,21.55
2022-08-07T06:06:56.415Z,21.67
2022-08-07T06:08:14.846Z,21.66
2022-08-07T06:08:51.667Z,21.67
2022-08-07T06:10:05.718Z,21.79
2022-08-07T06:10:54.613Z,21.69
2022-08-07T06:11:50.446Z,21.79
2022-08-07T06:12:50.440Z,21.84
2022-08-07T06:14:13.218Z,21.87
2022-08-07T06:14:50.419Z,21.82
2022-08-07T06:15:50.408Z,21.88
2022-08-07T06:16:55.840Z,21.85
2022-08-07T06:17:55.381Z,21.76
2022-08-07T06:18:51.751Z,21.92
2022-08-07T06:20:03.200Z,21.77
2022-08-07T06:22:14.679Z,21.85
2022-08-07T06:22:15.158Z,21.89
2022-08-07T06:23:02.341Z,21.92
2022-08-07T06:24:39.164Z,21.82
2022-08-07T06:24:58.064Z,21.95
2022-08-07T06:25:54.761Z,21.87
2022-08-07T06:26:51.319Z,22.03
2022-08-07T06:28:01.254Z,22.02
2022-08-07T06:28:50.276Z,21.85
2022-08-07T06:29:50.265Z,21.77
2022-08-07T06:30:51.849Z,21.87
2022-08-07T06:31:50.724Z,21.81
2022-08-07T06:32:50.233Z,21.81
2022-08-07T06:33:50.224Z,21.89
2022-08-07T06:34:50.216Z,22.06
2022-08-07T06:36:06.385Z,22.27
2022-08-07T06:36:51.910Z,22.47
2022-08-07T06:37:50.185Z,22.44
2022-08-07T06:38:59.198Z,22.39
2022-08-07T06:40:17.844Z,22.21
2022-08-07T06:40:51.337Z,22.03
2022-08-07T06:42:02.018Z,22.13
2022-08-07T06:42:51.154Z,22.07
2022-08-07T06:44:01.390Z,21.85
2022-08-07T06:44:51.458Z,21.74
2022-08-07T06:45:50.100Z,21.89
2022-08-07T06:46:53.652Z,21.88
2022-08-07T06:47:58.790Z,21.85
2022-08-07T06:48:51.094Z,21.88
2022-08-07T06:49:50.809Z,22.07
2022-08-07T06:50:50.051Z,22.04
2022-08-07T06:51:50.412Z,22.22
2022-08-07T06:52:52.902Z,22.28
2022-08-07T06:55:28.954Z,22.37
2022-08-07T06:55:31.422Z,22.47
2022-08-07T06:56:00.436Z,22.77
2022-08-07T06:56:51.019Z,22.90
2022-08-07T06:57:56.404Z,22.96
2022-08-07T07:00:11.647Z,23.21
2022-08-07T07:00:11.648Z,23.02
2022-08-07T07:00:52.968Z,23.05
2022-08-07T07:01:50.900Z,23.06
2022-08-07T07:02:54.193Z,22.91
2022-08-07T07:03:57.242Z,22.95
2022-08-07T07:04:55.066Z,22.78
2022-08-07T07:06:04.990Z,22.75
2022-08-07T07:07:00.588Z,22.77
2022-08-07T07:07:59.879Z,22.93
2022-08-07T07:08:50.912Z,23.13
2022-08-07T07:09:49.860Z,23.35
2022-08-07T07:10:56.518Z,23.70
2022-08-07T07:12:08.217Z,23.69
2022-08-07T07:12:50.418Z,23.75
2022-08-07T07:13:58.413Z,23.92
2022-08-07T07:14:49.813Z,24.14
2022-08-07T07:15:51.782Z,24.18
2022-08-07T07:16:53.382Z,24.40
2022-08-07T07:17:50.512Z,24.70
2022-08-07T07:18:49.776Z,24.77
2022-08-07T07:19:57.138Z,24.90
2022-08-07T07:20:50.207Z,24.76
2022-08-07T07:22:05.100Z,24.65
2022-08-07T07:24:09.886Z,24.85
2022-08-07T07:24:11.242Z,24.99
2022-08-07T07:24:56.862Z,24.65
2022-08-07T07:26:34.959Z,24.77
2022-08-07T07:26:52.314Z,24.85
2022-08-07T07:27:58.398Z,24.90
2022-08-07T07:29:57.008Z,24.95
2022-08-07T07:30:09.206Z,24.80
2022-08-07T07:30:49.656Z,24.97
2022-08-07T07:31:49.647Z,25.31
2022-08-07T07:32:49.639Z,25.31
2022-08-07T07:33:56.460Z,25.59
2022-08-07T07:34:50.641Z,25.55
2022-08-07T07:36:03.940Z,25.50
2022-08-07T07:36:52.753Z,25.45
2022-08-07T07:38:02.035Z,25.70
2022-08-07T07:38:49.576Z,25.97
2022-08-07T07:39:54.944Z,26.03
2022-08-07T07:40:49.554Z,26.00
2022-08-07T07:42:02.158Z,26.04
2022-08-07T07:42:51.331Z,26.19
2022-08-07T07:44:17.420Z,26.03
2022-08-07T07:44:49.867Z,25.97
2022-08-07T07:46:36.752Z,25.97
2022-08-07T07:46:57.272Z,26.12
2022-08-07T07:47:52.699Z,26.24
2022-08-07T07:48:49.479Z,25.96
2022-08-07T07:50:34.755Z,25.62
2022-08-07T07:50:49.463Z,25.55
2022-08-07T07:51:58.468Z,25.55
2022-08-07T07:52:50.459Z,25.62
2022-08-07T07:53:51.858Z,25.84
2022-08-07T07:54:50.606Z,25.78
2022-08-07T07:55:57.426Z,25.62
2022-08-07T07:56:50.424Z,25.40
2022-08-07T07:57:53.599Z,25.44
2022-08-07T07:58:49.387Z,25.56
2022-08-07T07:59:52.224Z,25.96
2022-08-07T08:00:53.831Z,26.30
2022-08-07T08:02:01.667Z,26.44
2022-08-07T08:03:05.819Z,26.06
2022-08-07T08:04:10.511Z,25.77
2022-08-07T08:04:50.689Z,25.74
2022-08-07T08:05:53.985Z,25.32
2022-08-07T08:06:52.046Z,25.28
2022-08-07T08:07:59.703Z,25.70
2022-08-07T08:08:50.303Z,25.84
2022-08-07T08:09:52.032Z,26.07
2022-08-07T08:10:50.286Z,26.18
2022-08-07T08:12:02.221Z,26.22
2022-08-07T08:12:58.879Z,26.00
2022-08-07T08:13:54.365Z,26.11
2022-08-07T08:14:49.230Z,26.54
2022-08-07T08:15:57.864Z,26.69
2022-08-07T08:16:50.860Z,26.80
2022-08-07T08:17:57.461Z,26.96
2022-08-07T08:18:50.400Z,27.23
2022-08-07T08:20:17.523Z,27.26
2022-08-07T08:20:50.192Z,26.84
2022-08-07T08:21:55.345Z,26.97
2022-08-07T08:22:56.322Z,26.89
2022-08-07T08:23:50.184Z,26.99
2022-08-07T08:24:54.830Z,27.15
2022-08-07T08:25:49.686Z,27.15
2022-08-07T08:26:50.387Z,27.24
2022-08-07T08:27:56.891Z,27.49
2022-08-07T08:28:49.092Z,27.14
2022-08-07T08:29:54.177Z,26.89
2022-08-07T08:30:51.504Z,26.39
2022-08-07T08:31:58.845Z,26.00
2022-08-07T08:32:50.280Z,25.97
2022-08-07T08:33:55.284Z,26.06
2022-08-07T08:34:50.057Z,26.34
2022-08-07T08:35:50.740Z,26.61
2022-08-07T08:36:49.016Z,26.95
2022-08-07T08:38:00.506Z,27.09
2022-08-07T08:38:50.018Z,27.23
2022-08-07T08:39:54.933Z,26.90
2022-08-07T08:40:50.001Z,26.66
2022-08-07T08:41:58.334Z,26.86
2022-08-07T08:42:51.545Z,27.07
2022-08-07T08:43:59.133Z,26.93
2022-08-07T08:44:48.938Z,26.71
2022-08-07T08:46:00.721Z,26.56
2022-08-07T08:46:49.939Z,26.73
2022-08-07T08:47:52.612Z,27.00
2022-08-07T08:48:50.930Z,27.51
2022-08-07T08:50:02.395Z,27.85
2022-08-07T08:50:51.673Z,27.89
2022-08-07T08:51:49.552Z,27.89
2022-08-07T08:52:54.078Z,28.32
2022-08-07T08:53:48.894Z,28.42
2022-08-07T08:54:48.845Z,28.67
2022-08-07T08:55:54.993Z,28.88
2022-08-07T08:56:49.847Z,29.00
2022-08-07T08:57:48.817Z,28.98
2022-08-07T08:58:50.450Z,29.06
2022-08-07T08:59:50.264Z,28.60
2022-08-07T09:00:51.734Z,28.03
2022-08-07T09:01:49.467Z,27.69
2022-08-07T09:02:52.395Z,27.51
2022-08-07T09:03:52.589Z,27.19
2022-08-07T09:04:48.744Z,27.37
2022-08-07T09:05:48.804Z,26.90
2022-08-07T09:06:48.738Z,26.61
2022-08-07T09:07:58.053Z,27.14
2022-08-07T09:08:49.730Z,27.45
2022-08-07T09:09:48.699Z,27.84
2022-08-07T09:10:48.693Z,28.23
2022-08-07T09:11:53.336Z,28.76
2022-08-07T09:12:53.430Z,29.08
2022-08-07T09:13:49.354Z,29.56
2022-08-07T09:14:50.725Z,30.03
2022-08-07T09:16:23.873Z,30.21
2022-08-07T09:16:49.658Z,30.36
2022-08-07T09:17:59.606Z,30.71
2022-08-07T09:18:58.267Z,30.51
2022-08-07T09:19:53.266Z,30.24
2022-08-07T09:20:58.141Z,30.31
2022-08-07T09:22:22.706Z,30.47
2022-08-07T09:24:31.059Z,30.05
2022-08-07T09:24:32.765Z,29.56
2022-08-07T09:25:00.613Z,30.13
2022-08-07T09:25:54.228Z,30.37
2022-08-07T09:26:50.993Z,30.24
2022-08-07T09:27:59.848Z,30.07
2022-08-07T09:30:04.319Z,30.40
2022-08-07T09:30:07.341Z,30.56
2022-08-07T09:30:54.253Z,29.79
2022-08-07T09:31:49.462Z,28.76
2022-08-07T09:32:48.487Z,28.22
2022-08-07T09:33:56.587Z,29.09
2022-08-07T09:34:53.619Z,29.12
2022-08-07T09:36:04.671Z,28.91
2022-08-07T09:36:49.843Z,29.13
2022-08-07T09:37:54.238Z,29.32
2022-08-07T09:38:53.624Z,30.09
2022-08-07T09:39:55.559Z,30.73
2022-08-07T09:40:50.109Z,31.40
2022-08-07T09:41:58.907Z,31.24
2022-08-07T09:42:50.298Z,31.26
2022-08-07T09:44:06.563Z,30.76
2022-08-07T09:47:20.285Z,30.02
2022-08-07T09:47:25.192Z,29.81
2022-08-07T09:47:52.607Z,30.56
2022-08-07T09:48:01.334Z,31.11
2022-08-07T09:50:00.575Z,30.74
2022-08-07T09:50:02.148Z,29.03
2022-08-07T09:50:51.402Z,28.98
2022-08-07T09:52:15.745Z,29.43
2022-08-07T09:52:51.772Z,30.12
2022-08-07T09:53:56.124Z,30.71
2022-08-07T09:54:49.310Z,31.52
2022-08-07T09:56:03.357Z,31.34
2022-08-07T09:56:48.269Z,31.71
2022-08-07T09:57:48.265Z,32.27
2022-08-07T09:58:48.753Z,31.75
2022-08-07T10:00:01.514Z,29.99
2022-08-07T10:00:50.557Z,29.03
2022-08-07T10:01:53.118Z,29.49
2022-08-07T10:02:55.892Z,30.05
2022-08-07T10:04:05.963Z,30.40
2022-08-07T10:04:53.302Z,30.13
2022-08-07T10:06:01.305Z,29.73
2022-08-07T10:06:55.620Z,29.52
2022-08-07T10:07:52.747Z,29.87
2022-08-07T10:08:49.583Z,29.67
2022-08-07T10:10:00.238Z,29.10
2022-08-07T10:11:16.676Z,28.22
2022-08-07T10:12:01.168Z,28.13
2022-08-07T10:12:53.023Z,28.82
2022-08-07T10:14:00.881Z,29.73
2022-08-07T10:14:54.182Z,30.61
2022-08-07T10:15:48.103Z,30.58
2022-08-07T10:16:48.205Z,30.51
2022-08-07T10:18:01.135Z,30.65
2022-08-07T10:18:48.078Z,31.15
2022-08-07T10:19:48.073Z,31.44
2022-08-07T10:20:50.376Z,31.93
2022-08-07T10:22:12.649Z,32.46
2022-08-07T10:22:51.044Z,32.23
2022-08-07T10:24:05.440Z,32.72
2022-08-07T10:24:49.048Z,32.46
2022-08-07T10:25:48.014Z,32.23
2022-08-07T10:26:53.044Z,32.55
2022-08-07T10:27:47.997Z,32.74
2022-08-07T10:28:49.666Z,33.01
2022-08-07T10:29:51.884Z,33.32
2022-08-07T10:30:47.968Z,33.18
2022-08-07T10:31:49.586Z,31.97
2022-08-07T10:32:52.677Z,30.80
2022-08-07T10:34:06.778Z,30.07
2022-08-07T10:34:48.961Z,29.97
2022-08-07T10:35:56.467Z,30.61
2022-08-07T10:36:48.949Z,31.59
2022-08-07T10:38:00.948Z,32.02
2022-08-07T10:38:49.955Z,31.52
2022-08-07T10:40:02.631Z,30.83
2022-08-07T10:40:48.904Z,31.01
2022-08-07T10:41:53.788Z,31.44
2022-08-07T10:42:50.053Z,29.90
2022-08-07T10:43:47.863Z,29.28
2022-08-07T10:44:47.850Z,29.27
2022-08-07T10:45:58.395Z,29.95
2022-08-07T10:46:48.854Z,30.68
2022-08-07T10:47:51.632Z,30.92
2022-08-07T10:48:47.813Z,30.95
2022-08-07T10:49:51.001Z,30.39
2022-08-07T10:50:50.372Z,30.66
2022-08-07T10:52:01.926Z,31.30
2022-08-07T10:52:51.546Z,31.31
2022-08-07T10:53:47.770Z,31.02
2022-08-07T10:54:53.366Z,29.72
2022-08-07T10:55:48.774Z,29.62
2022-08-07T10:56:47.747Z,29.88
2022-08-07T10:57:56.182Z,29.99
2022-08-07T10:58:56.722Z,30.40
2022-08-07T10:59:47.760Z,31.41
2022-08-07T11:00:50.179Z,31.62
2022-08-07T11:01:51.928Z,31.70
2022-08-07T11:02:49.123Z,32.11
2022-08-07T11:03:54.861Z,31.70
2022-08-07T11:04:48.698Z,32.24
2022-08-07T11:05:50.902Z,32.67
2022-08-07T11:06:47.658Z,33.11
2022-08-07T11:07:58.981Z,33.75
2022-08-07T11:08:48.684Z,34.14
2022-08-07T11:10:09.341Z,34.39
2022-08-07T11:10:55.391Z,31.90
2022-08-07T11:11:51.825Z,30.93
2022-08-07T11:12:48.996Z,31.31
2022-08-07T11:14:57.400Z,31.02
2022-08-07T11:14:57.427Z,31.06
2022-08-07T11:15:54.736Z,30.96
2022-08-07T11:16:52.797Z,30.03
2022-08-07T11:17:47.977Z,29.53
2022-08-07T11:18:51.085Z,29.57
2022-08-07T11:19:47.550Z,29.76
2022-08-07T11:20:47.536Z,30.31
2022-08-07T11:21:47.527Z,31.05
2022-08-07T11:22:47.524Z,30.99
2022-08-07T11:23:48.534Z,31.18
2022-08-07T11:24:47.507Z,31.88
2022-08-07T11:25:49.837Z,32.05
2022-08-07T11:26:49.913Z,31.24
2022-08-07T11:28:02.074Z,31.02
2022-08-07T11:28:55.127Z,30.46
2022-08-07T11:29:53.882Z,30.73
2022-08-07T11:30:48.476Z,31.19
2022-08-07T11:31:47.448Z,31.53
2022-08-07T11:32:47.437Z,31.26
2022-08-07T11:33:53.750Z,31.93
2022-08-07T11:34:48.439Z,32.41
2022-08-07T11:36:00.352Z,32.41
2022-08-07T11:36:49.671Z,33.09
2022-08-07T11:37:58.414Z,33.46
2022-08-07T11:38:50.646Z,31.81
2022-08-07T11:40:00.341Z,31.66
2022-08-07T11:40:49.743Z,32.24
2022-08-07T11:42:01.517Z,32.71
2022-08-07T11:42:48.373Z,33.65
2022-08-07T11:44:10.690Z,33.91
2022-08-07T11:44:52.591Z,34.34
2022-08-07T11:45:49.878Z,33.24
2022-08-07T11:46:48.765Z,33.12
2022-08-07T11:47:56.081Z,33.23
2022-08-07T11:49:27.439Z,33.27
2022-08-07T11:50:18.544Z,33.46
2022-08-07T11:50:57.729Z,33.61
2022-08-07T11:51:47.274Z,32.48
2022-08-07T11:52:47.264Z,30.66
2022-08-07T11:54:00.977Z,30.28
2022-08-07T11:54:54.766Z,30.06
2022-08-07T11:56:25.775Z,29.81
2022-08-07T11:56:52.303Z,29.95
2022-08-07T11:57:58.087Z,29.43
2022-08-07T11:58:49.887Z,29.94
2022-08-07T12:00:10.247Z,30.43
2022-08-07T12:01:01.731Z,31.03
2022-08-07T12:01:59.245Z,31.56
2022-08-07T12:02:52.000Z,32.44
2022-08-07T12:03:47.244Z,33.12
2022-08-07T12:04:47.162Z,33.36
2022-08-07T12:05:49.540Z,33.24
2022-08-07T12:06:51.680Z,33.42
2022-08-07T12:07:53.837Z,33.98
2022-08-07T12:08:48.145Z,34.21
2022-08-07T12:09:47.118Z,33.72
2022-08-07T12:10:47.107Z,33.86
2022-08-07T12:12:09.502Z,34.22
2022-08-07T12:12:48.114Z,34.07
2022-08-07T12:13:47.811Z,33.35
2022-08-07T12:14:52.675Z,33.04
2022-08-07T12:16:05.766Z,31.95
2022-08-07T12:16:47.060Z,32.02
2022-08-07T12:17:59.718Z,31.33
2022-08-07T12:18:47.041Z,30.49
2022-08-07T12:20:02.519Z,31.10
2022-08-07T12:20:49.164Z,31.22
2022-08-07T12:22:36.073Z,31.89
2022-08-07T12:22:58.367Z,32.48
2022-08-07T12:24:07.184Z,33.04
2022-08-07T12:25:02.079Z,33.95
2022-08-07T12:26:03.083Z,33.86
2022-08-07T12:26:49.317Z,33.94
2022-08-07T12:28:09.101Z,34.40
2022-08-07T12:28:49.775Z,34.76
2022-08-07T12:29:46.948Z,34.78
2022-08-07T12:30:53.277Z,34.34
2022-08-07T12:31:52.972Z,32.67
2022-08-07T12:32:46.925Z,31.05
2022-08-07T12:34:00.788Z,30.93
2022-08-07T12:34:49.406Z,31.14
2022-08-07T12:35:48.246Z,30.92
2022-08-07T12:36:49.413Z,31.53
2022-08-07T12:38:11.531Z,32.15
2022-08-07T12:38:57.407Z,32.72
2022-08-07T12:39:50.812Z,33.24
2022-08-07T12:42:40.658Z,33.62
2022-08-07T12:42:54.911Z,34.45
2022-08-07T12:44:05.067Z,34.96
2022-08-07T12:44:48.032Z,35.37
2022-08-07T12:48:28.412Z,35.89
2022-08-07T12:48:28.423Z,35.50
2022-08-07T12:49:39.760Z,34.34
2022-08-07T12:51:23.392Z,33.21
2022-08-07T12:51:33.436Z,33.69
2022-08-07T12:52:34.278Z,33.48
2022-08-07T12:55:03.764Z,33.58
2022-08-07T12:55:09.419Z,32.57
2022-08-07T14:02:03.790Z,32.84
2022-08-07T14:02:04.568Z,37.05
2022-08-07T14:02:58.908Z,36.62
2022-08-07T14:04:08.104Z,35.99
2022-08-07T14:05:03.950Z,35.57
2022-08-07T14:06:07.715Z,35.12
2022-08-07T14:08:37.507Z,34.92
2022-08-07T14:08:38.913Z,35.20
2022-08-07T14:10:02.988Z,35.37
2022-08-07T14:10:42.173Z,35.14
2022-08-07T14:12:00.341Z,34.63
2022-08-07T14:19:02.768Z,34.44
2022-08-07T14:19:04.289Z,33.99
2022-08-07T14:20:42.160Z,34.22
2022-08-07T14:22:10.609Z,34.30
2022-08-07T14:22:10.800Z,34.76
2022-08-07T14:24:03.653Z,35.27
2022-08-07T14:24:07.501Z,35.96
2022-08-07T14:25:07.486Z,36.42
2022-08-07T14:26:07.529Z,36.66
2022-08-07T14:28:55.888Z,34.78
2022-08-07T14:28:57.404Z,36.47
2022-08-07T14:33:17.197Z,34.89
2022-08-07T14:33:24.612Z,34.02
2022-08-07T14:34:29.294Z,33.83
2022-08-07T14:40:55.138Z,33.92
2022-08-07T14:40:56.610Z,35.64
2022-08-07T14:42:20.248Z,35.65
2022-08-07T14:43:01.399Z,34.96
2022-08-07T14:44:07.878Z,32.33
2022-08-07T14:44:59.947Z,30.77
2022-08-07T14:45:56.531Z,30.34
2022-08-07T14:47:14.559Z,30.05
2022-08-07T14:47:58.614Z,30.69
2022-08-07T14:48:56.507Z,31.08
2022-08-07T14:49:59.334Z,31.36
2022-08-07T14:50:56.489Z,31.56
2022-08-07T14:52:04.242Z,31.97
2022-08-07T14:52:56.469Z,32.18
2022-08-07T14:54:30.557Z,32.10
2022-08-07T14:54:56.454Z,31.95
2022-08-07T14:56:02.079Z,31.60
2022-08-07T14:56:56.437Z,31.56
2022-08-07T14:58:58.416Z,31.30
2022-08-07T15:03:24.777Z,31.08
2022-08-07T15:03:52.303Z,33.20
2022-08-07T15:04:32.161Z,33.98
2022-08-07T15:05:31.128Z,34.17
2022-08-07T15:06:31.123Z,33.98
2022-08-07T15:07:51.290Z,33.95
2022-08-07T15:08:32.234Z,33.76
2022-08-07T15:09:31.093Z,33.45
2022-08-07T15:10:32.107Z,33.18
2022-08-07T15:11:53.725Z,32.77
2022-08-07T15:12:33.071Z,32.04
2022-08-07T15:13:35.816Z,31.33
2022-08-07T15:14:31.053Z,30.21
2022-08-07T15:15:31.043Z,29.43
2022-08-07T15:16:34.059Z,29.68
2022-08-07T15:17:31.337Z,29.83
2022-08-07T15:20:30.740Z,30.40
2022-08-07T15:21:44.288Z,30.53
2022-08-07T15:22:33.438Z,30.80
2022-08-07T15:25:13.101Z,30.87
2022-08-07T15:25:14.521Z,30.83
2022-08-07T15:25:36.823Z,30.43
2022-08-07T15:26:31.973Z,29.73
2022-08-07T15:27:31.217Z,29.67
2022-08-07T15:31:04.441Z,30.46
2022-08-07T15:31:05.393Z,30.02
2022-08-07T15:37:03.038Z,32.42
2022-08-07T15:37:03.245Z,30.43
2022-08-07T15:40:35.012Z,32.02
2022-08-07T15:40:36.694Z,31.62
2022-08-07T15:42:43.353Z,31.40
2022-08-07T15:44:38.656Z,32.98
2022-08-07T15:45:57.669Z,32.49
2022-08-07T15:46:51.762Z,31.53
2022-08-07T15:48:02.390Z,31.06
2022-08-07T15:48:37.640Z,30.25
2022-08-07T15:50:03.700Z,29.83
2022-08-07T15:52:36.897Z,30.13
2022-08-07T15:53:51.877Z,29.99
2022-08-07T15:54:39.495Z,29.94
2022-08-07T15:56:02.412Z,30.28
2022-08-07T15:56:37.574Z,30.93
2022-08-07T15:57:39.768Z,31.24
2022-08-07T15:58:37.556Z,31.38
2022-08-07T15:59:39.982Z,31.19
2022-08-07T16:00:37.968Z,30.81
2022-08-07T16:01:39.103Z,30.58
2022-08-07T16:02:36.509Z,30.59
2022-08-07T16:03:46.095Z,30.49
2022-08-07T16:04:37.502Z,29.83
2022-08-07T16:05:36.470Z,29.73
2022-08-07T16:06:36.464Z,29.64
2022-08-07T16:08:32.328Z,29.27
2022-08-07T16:08:38.998Z,29.10
2022-08-07T16:09:41.871Z,29.13
2022-08-07T16:10:36.422Z,29.22
2022-08-07T16:11:39.919Z,28.98
2022-08-07T16:12:38.951Z,29.03
2022-08-07T16:13:57.918Z,29.04
2022-08-07T16:14:37.411Z,29.01
2022-08-07T16:15:55.003Z,28.81
2022-08-07T16:16:48.417Z,28.82
2022-08-07T16:18:02.134Z,28.72
2022-08-07T16:18:49.314Z,28.63
2022-08-07T16:19:42.592Z,28.64
2022-08-07T16:20:36.993Z,28.78
2022-08-07T16:22:02.062Z,28.91
2022-08-07T16:22:37.956Z,28.79
2022-08-07T16:23:54.297Z,28.71
2022-08-07T16:24:37.314Z,28.81
2022-08-07T16:25:52.473Z,28.93
2022-08-07T16:26:37.294Z,28.73
2022-08-07T16:27:39.979Z,28.78
2022-08-07T16:30:06.767Z,28.48
2022-08-07T16:30:11.187Z,28.57
2022-08-07T16:30:37.254Z,28.94
2022-08-07T16:31:51.844Z,29.31
2022-08-07T16:32:37.426Z,29.37
2022-08-07T16:34:02.520Z,29.03
2022-08-07T16:34:36.197Z,29.10
2022-08-07T16:35:57.086Z,28.72
2022-08-07T16:37:02.784Z,28.64
2022-08-07T16:38:06.471Z,28.61
2022-08-07T16:39:00.137Z,28.35
2022-08-07T16:39:48.929Z,28.48
2022-08-07T16:40:37.241Z,28.19
2022-08-07T16:41:41.126Z,28.21
2022-08-07T16:42:36.613Z,28.36
2022-08-07T16:44:02.696Z,28.25
2022-08-07T16:44:55.469Z,28.16
2022-08-07T16:46:40.364Z,28.29
2022-08-07T16:47:07.676Z,28.18
2022-08-07T16:47:56.571Z,28.04
2022-08-07T16:49:04.205Z,27.97
2022-08-07T16:50:20.855Z,27.74
2022-08-07T16:50:48.234Z,27.86
2022-08-07T16:52:01.667Z,27.64
2022-08-07T16:52:55.698Z,27.42
2022-08-07T16:54:01.673Z,27.33
2022-08-07T16:54:36.005Z,27.26
2022-08-07T16:55:47.079Z,27.17
2022-08-07T16:56:37.672Z,27.08
2022-08-07T16:58:02.622Z,27.09
2022-08-07T16:59:02.334Z,27.26
2022-08-07T16:59:47.061Z,27.33
2022-08-07T17:00:36.966Z,27.24
2022-08-07T17:01:36.028Z,27.37
2022-08-07T17:03:04.942Z,27.36
2022-08-07T17:03:58.473Z,27.37
2022-08-07T17:04:52.984Z,27.23
2022-08-07T17:06:20.008Z,27.33
2022-08-07T17:06:44.211Z,27.17
2022-08-07T17:07:51.510Z,27.08
2022-08-07T17:09:09.837Z,26.93
2022-08-07T17:10:07.928Z,26.79
2022-08-07T17:10:36.872Z,26.95
2022-08-07T17:11:50.757Z,26.96
2022-08-07T17:12:39.878Z,26.86
2022-08-07T17:13:38.915Z,26.99
2022-08-07T17:14:35.811Z,27.02
2022-08-07T17:15:43.654Z,27.07
2022-08-07T17:16:35.801Z,26.81
2022-08-07T17:17:43.930Z,26.81
2022-08-07T17:18:36.792Z,26.81
2022-08-07T17:20:02.458Z,26.61
2022-08-07T17:20:35.753Z,26.56
2022-08-07T17:21:51.797Z,26.54
2022-08-07T17:22:38.136Z,26.30
2022-08-07T17:23:35.747Z,26.39
2022-08-07T17:24:35.711Z,26.25
2022-08-07T17:25:47.506Z,26.24
2022-08-07T17:26:50.006Z,26.03
2022-08-07T17:27:37.021Z,26.14
2022-08-07T17:28:36.696Z,26.10
2022-08-07T17:30:14.322Z,26.06
2022-08-07T17:30:36.673Z,26.06
2022-08-07T17:31:44.003Z,26.00
2022-08-07T17:32:36.769Z,25.85
2022-08-07T17:34:09.733Z,25.93
2022-08-07T17:35:02.703Z,25.97
2022-08-07T17:35:55.174Z,25.90
2022-08-07T17:36:57.830Z,25.87
2022-08-07T17:38:11.504Z,25.88
2022-08-07T17:38:35.604Z,25.82
2022-08-07T17:39:58.447Z,26.00
2022-08-07T17:40:35.626Z,25.92
2022-08-07T17:42:04.557Z,25.74
2022-08-07T17:42:35.543Z,25.87
2022-08-07T17:44:00.931Z,25.74
2022-08-07T17:44:42.710Z,25.80
2022-08-07T17:45:36.524Z,25.60
2022-08-07T17:46:35.497Z,25.84
2022-08-07T17:47:42.273Z,25.69
2022-08-07T17:48:36.497Z,25.66
2022-08-07T17:49:44.535Z,25.44
2022-08-07T17:50:35.458Z,25.32
2022-08-07T17:52:00.767Z,25.18
2022-08-07T17:52:35.436Z,25.09
2022-08-07T17:53:59.859Z,25.21
2022-08-07T17:54:40.169Z,25.14
2022-08-07T17:55:59.913Z,24.91
2022-08-07T17:56:36.419Z,24.80
2022-08-07T17:57:58.375Z,24.75
2022-08-07T17:58:36.400Z,24.73
2022-08-07T17:59:36.218Z,24.45
2022-08-07T18:00:49.365Z,24.37
2022-08-07T18:01:37.135Z,24.25
2022-08-07T18:02:35.338Z,23.99
2022-08-07T18:04:03.950Z,23.79
2022-08-07T18:04:36.338Z,23.43
2022-08-07T18:06:03.188Z,23.00
2022-08-07T18:06:38.485Z,22.68
2022-08-07T18:07:35.289Z,22.69
2022-08-07T18:08:35.279Z,22.69
2022-08-07T18:10:04.354Z,22.66
2022-08-07T18:10:36.277Z,22.60
2022-08-07T18:12:16.813Z,22.55
2022-08-07T18:12:36.510Z,22.59
2022-08-07T18:13:40.795Z,22.70
2022-08-07T18:14:37.402Z,22.60
2022-08-07T18:15:35.211Z,22.63
2022-08-07T18:16:35.198Z,22.29